createdAt,value
2023-01-18T00:00:40.927Z,3.00
2023-01-18T00:03:13.270Z,2.90
2023-01-18T00:05:42.141Z,2.90
2023-01-18T00:08:13.103Z,2.80
2023-01-18T00:10:40.336Z,2.90
2023-01-18T00:13:07.181Z,2.80
2023-01-18T00:15:35.199Z,2.80
2023-01-18T00:18:02.760Z,2.80
2023-01-18T00:20:30.812Z,2.90
2023-01-18T00:23:00.428Z,2.90
2023-01-18T00:25:27.454Z,2.90
2023-01-18T00:27:55.672Z,2.90
2023-01-18T00:30:25.803Z,3.00
2023-01-18T00:32:55.533Z,3.00
2023-01-18T00:35:23.632Z,3.00
2023-01-18T00:37:51.718Z,3.00
2023-01-18T00:40:22.662Z,3.00
2023-01-18T00:43:08.209Z,3.10
2023-01-18T00:45:35.156Z,3.00
2023-01-18T00:48:02.772Z,3.00
2023-01-18T00:50:29.893Z,3.00
2023-01-18T00:52:58.821Z,3.00
2023-01-18T00:55:26.487Z,3.00
2023-01-18T00:57:53.508Z,3.00
2023-01-18T01:00:26.644Z,3.00
2023-01-18T01:02:53.931Z,3.00
2023-01-18T01:05:43.129Z,3.00
2023-01-18T01:08:17.469Z,3.00
2023-01-18T01:10:49.998Z,3.00
2023-01-18T01:13:38.237Z,2.90
2023-01-18T01:16:32.348Z,2.90
2023-01-18T01:19:17.745Z,2.90
2023-01-18T01:22:03.356Z,2.90
2023-01-18T01:24:48.642Z,2.90
2023-01-18T01:27:15.616Z,2.80
2023-01-18T01:29:42.499Z,2.80
2023-01-18T01:32:10.255Z,2.80
2023-01-18T01:34:37.214Z,2.70
2023-01-18T01:37:04.836Z,2.70
2023-01-18T01:39:31.763Z,2.70
2023-01-18T01:41:58.628Z,2.70
2023-01-18T01:44:28.053Z,2.70
2023-01-18T01:46:59.320Z,2.60
2023-01-18T01:49:42.911Z,2.60
2023-01-18T01:52:16.384Z,2.60
2023-01-18T01:55:04.675Z,2.60
2023-01-18T01:57:36.636Z,2.60
2023-01-18T02:00:14.544Z,2.60
2023-01-18T02:02:44.739Z,2.60
2023-01-18T02:05:14.157Z,2.60
2023-01-18T02:07:41.269Z,2.60
2023-01-18T02:10:08.895Z,2.70
2023-01-18T02:12:38.423Z,2.60
2023-01-18T02:15:06.118Z,2.70
2023-01-18T02:17:32.876Z,2.70
2023-01-18T02:20:21.881Z,2.70
2023-01-18T02:22:58.066Z,2.70
2023-01-18T02:25:39.862Z,2.60
2023-01-18T02:28:12.607Z,2.70
2023-01-18T02:30:46.773Z,2.60
2023-01-18T02:33:34.744Z,2.60
2023-01-18T02:36:03.909Z,2.60
2023-01-18T02:38:45.625Z,2.50
2023-01-18T02:41:21.483Z,2.40
2023-01-18T02:44:12.440Z,2.40
2023-01-18T02:46:40.445Z,2.30
2023-01-18T02:49:18.313Z,2.20
2023-01-18T02:51:45.177Z,2.10
2023-01-18T02:54:24.097Z,2.10
2023-01-18T02:56:53.975Z,2.10
2023-01-18T02:59:26.783Z,2.10
2023-01-18T03:01:59.523Z,2.00
2023-01-18T03:04:35.669Z,2.00
2023-01-18T03:07:09.509Z,2.00
2023-01-18T03:09:37.066Z,2.00
2023-01-18T03:12:25.840Z,2.00
2023-01-18T03:15:05.730Z,2.10
2023-01-18T03:17:43.664Z,2.10
2023-01-18T03:20:13.316Z,2.00
2023-01-18T03:23:07.994Z,2.00
2023-01-18T03:25:42.358Z,2.00
2023-01-18T03:28:38.428Z,1.90
2023-01-18T03:31:28.658Z,2.00
2023-01-18T03:34:00.802Z,2.00
2023-01-18T03:36:31.923Z,2.00
2023-01-18T03:39:06.150Z,2.00
2023-01-18T03:41:37.102Z,2.00
2023-01-18T03:44:11.755Z,2.00
2023-01-18T03:46:40.494Z,2.00
2023-01-18T03:49:08.273Z,1.90
2023-01-18T03:51:47.435Z,1.90
2023-01-18T03:54:23.176Z,1.80
2023-01-18T03:57:01.101Z,1.80
2023-01-18T03:59:33.771Z,1.70
2023-01-18T04:02:01.063Z,1.70
2023-01-18T04:04:27.896Z,1.80
2023-01-18T04:06:54.719Z,1.80
2023-01-18T04:09:21.594Z,1.80
2023-01-18T04:11:48.420Z,1.80
2023-01-18T04:14:15.420Z,1.70
2023-01-18T04:16:42.235Z,1.80
2023-01-18T04:19:09.067Z,1.70
2023-01-18T04:21:35.998Z,1.70
2023-01-18T04:24:02.836Z,1.60
2023-01-18T04:26:30.031Z,1.50
2023-01-18T04:28:56.992Z,1.50
2023-01-18T04:31:23.829Z,1.50
2023-01-18T04:33:51.674Z,1.50
2023-01-18T04:36:20.195Z,1.40
2023-01-18T04:38:47.031Z,1.30
2023-01-18T04:41:13.841Z,1.30
2023-01-18T04:43:40.701Z,1.40
2023-01-18T04:46:07.489Z,1.30
2023-01-18T04:48:34.339Z,1.30
2023-01-18T04:51:01.148Z,1.30
2023-01-18T04:53:27.964Z,1.40
2023-01-18T04:55:54.878Z,1.40
2023-01-18T04:58:21.723Z,1.40
2023-01-18T05:00:49.165Z,1.40
2023-01-18T05:03:16.253Z,1.40
2023-01-18T05:05:43.102Z,1.40
2023-01-18T05:08:09.981Z,1.40
2023-01-18T05:10:36.788Z,1.30
2023-01-18T05:13:03.900Z,1.40
2023-01-18T05:15:30.836Z,1.40
2023-01-18T05:17:57.705Z,1.40
2023-01-18T05:20:24.491Z,1.40
2023-01-18T05:22:51.317Z,1.40
2023-01-18T05:25:18.169Z,1.40
2023-01-18T05:27:45.004Z,1.40
2023-01-18T05:30:12.384Z,1.40
2023-01-18T05:32:39.365Z,1.40
2023-01-18T05:35:06.618Z,1.40
2023-01-18T05:37:33.858Z,1.40
2023-01-18T05:40:01.435Z,1.50
2023-01-18T05:42:28.334Z,1.50
2023-01-18T05:44:55.151Z,1.60
2023-01-18T05:47:22.482Z,1.60
2023-01-18T05:49:49.577Z,1.70
2023-01-18T05:52:17.091Z,1.70
2023-01-18T05:54:43.913Z,1.70
2023-01-18T05:57:10.940Z,1.60
2023-01-18T05:59:37.811Z,1.60
2023-01-18T06:02:04.961Z,1.50
2023-01-18T06:04:31.911Z,1.50
2023-01-18T06:06:59.067Z,1.50
2023-01-18T06:09:25.975Z,1.40
2023-01-18T06:11:52.767Z,1.40
2023-01-18T06:14:19.621Z,1.30
2023-01-18T06:16:46.521Z,1.30
2023-01-18T06:19:13.478Z,1.30
2023-01-18T06:21:40.285Z,1.30
2023-01-18T06:24:07.437Z,1.30
2023-01-18T06:26:34.784Z,1.30
2023-01-18T06:29:01.568Z,1.30
2023-01-18T06:31:28.402Z,1.30
2023-01-18T06:33:55.220Z,1.30
2023-01-18T06:36:22.298Z,1.30
2023-01-18T06:38:49.309Z,1.20
2023-01-18T06:41:16.099Z,1.20
2023-01-18T06:43:43.123Z,1.20
2023-01-18T06:46:11.645Z,1.10
2023-01-18T06:48:38.733Z,1.10
2023-01-18T06:51:05.738Z,1.10
2023-01-18T06:53:32.613Z,1.00
2023-01-18T06:56:01.945Z,1.00
2023-01-18T06:58:32.778Z,1.00
2023-01-18T07:01:00.789Z,1.00
2023-01-18T07:03:29.268Z,1.00
2023-01-18T07:05:58.686Z,0.90
2023-01-18T07:08:27.007Z,0.90
2023-01-18T07:10:54.421Z,0.80
2023-01-18T07:13:22.226Z,0.80
2023-01-18T07:16:00.856Z,0.80
2023-01-18T07:18:29.884Z,0.90
2023-01-18T07:21:04.546Z,0.90
2023-01-18T07:23:39.370Z,0.90
2023-01-18T07:26:11.789Z,0.90
2023-01-18T07:28:38.726Z,0.90
2023-01-18T07:31:07.982Z,0.90
2023-01-18T07:33:35.626Z,1.00
2023-01-18T07:36:07.380Z,1.00
2023-01-18T07:38:34.451Z,1.00
2023-01-18T07:41:04.441Z,1.00
2023-01-18T07:43:33.015Z,1.00
2023-01-18T07:46:00.945Z,1.00
2023-01-18T07:48:28.579Z,1.00
2023-01-18T07:51:00.296Z,1.00
2023-01-18T07:53:28.260Z,1.00
2023-01-18T07:55:58.558Z,1.00
2023-01-18T07:58:25.346Z,1.00
2023-01-18T08:00:52.806Z,1.00
2023-01-18T08:03:20.173Z,1.00
2023-01-18T08:05:47.842Z,0.90
2023-01-18T08:08:17.042Z,0.90
2023-01-18T08:10:44.594Z,0.90
2023-01-18T08:13:11.856Z,0.90
2023-01-18T08:15:39.837Z,0.90
2023-01-18T08:18:08.058Z,0.90
2023-01-18T08:20:35.299Z,0.90
2023-01-18T08:23:02.689Z,0.90
2023-01-18T08:25:31.712Z,0.90
2023-01-18T08:28:00.223Z,0.90
2023-01-18T08:30:30.247Z,0.90
2023-01-18T08:32:59.266Z,1.00
2023-01-18T08:35:28.428Z,1.00
2023-01-18T08:37:56.017Z,1.10
2023-01-18T08:40:23.544Z,1.10
2023-01-18T08:42:51.150Z,1.10
2023-01-18T08:45:18.105Z,1.10
2023-01-18T08:47:44.969Z,1.10
2023-01-18T08:50:11.928Z,1.10
2023-01-18T08:52:38.925Z,1.20
2023-01-18T08:55:07.258Z,1.20
2023-01-18T08:57:34.176Z,1.10
2023-01-18T09:00:01.180Z,1.20
2023-01-18T09:02:28.054Z,1.20
2023-01-18T09:04:54.932Z,1.20
2023-01-18T09:07:21.741Z,1.10
2023-01-18T09:09:48.585Z,1.20
2023-01-18T09:12:15.432Z,1.20
2023-01-18T09:14:42.183Z,1.20
2023-01-18T09:17:09.019Z,1.20
2023-01-18T09:19:35.899Z,1.20
2023-01-18T09:22:03.748Z,1.20
2023-01-18T09:24:30.600Z,1.20
2023-01-18T09:26:57.414Z,1.20
2023-01-18T09:29:24.491Z,1.30
2023-01-18T09:31:53.918Z,1.30
2023-01-18T09:34:20.878Z,1.30
2023-01-18T09:36:52.381Z,1.30
2023-01-18T09:39:20.614Z,1.30
2023-01-18T09:41:56.418Z,1.30
2023-01-18T09:44:36.026Z,1.30
2023-01-18T09:47:22.732Z,1.40
2023-01-18T09:49:54.992Z,1.40
2023-01-18T09:52:57.387Z,1.40
2023-01-18T09:55:51.083Z,1.40
2023-01-18T09:58:52.327Z,1.40
2023-01-18T10:01:23.473Z,1.40
2023-01-18T10:04:02.070Z,1.50
2023-01-18T10:06:35.130Z,1.60
2023-01-18T10:09:15.708Z,1.60
2023-01-18T10:12:12.564Z,1.60
2023-01-18T10:14:48.176Z,1.60
2023-01-18T10:17:21.272Z,1.70
2023-01-18T10:19:48.342Z,1.70
2023-01-18T10:22:33.207Z,1.70
2023-01-18T10:25:05.009Z,1.70
2023-01-18T10:27:51.139Z,1.70
2023-01-18T10:30:40.019Z,1.80
2023-01-18T10:33:23.229Z,1.80
2023-01-18T10:35:55.234Z,1.90
2023-01-18T10:38:26.431Z,2.00
2023-01-18T10:40:58.986Z,2.00
2023-01-18T10:43:28.716Z,2.10
2023-01-18T10:45:56.280Z,2.20
2023-01-18T10:48:34.836Z,2.20
2023-01-18T10:51:05.896Z,2.30
2023-01-18T10:53:40.083Z,2.30
2023-01-18T10:56:09.936Z,2.40
2023-01-18T10:58:50.645Z,2.50
2023-01-18T11:01:24.523Z,2.60
2023-01-18T11:03:55.155Z,2.60
2023-01-18T11:06:23.087Z,2.60
2023-01-18T11:08:50.718Z,2.70
2023-01-18T11:11:51.603Z,2.70
2023-01-18T11:14:29.508Z,2.70
2023-01-18T11:17:10.928Z,2.70
2023-01-18T11:19:39.003Z,2.80
2023-01-18T11:22:12.677Z,2.70
2023-01-18T11:24:40.023Z,2.80
2023-01-18T11:27:20.363Z,2.80
2023-01-18T11:29:47.414Z,2.70
2023-01-18T11:32:30.847Z,2.70
2023-01-18T11:35:00.104Z,2.70
2023-01-18T11:37:26.936Z,2.70
2023-01-18T11:39:53.698Z,2.70
2023-01-18T11:42:34.385Z,2.70
2023-01-18T11:45:40.797Z,2.60
2023-01-18T11:48:36.902Z,2.60
2023-01-18T11:51:34.593Z,2.70
2023-01-18T11:54:26.623Z,2.70
2023-01-18T11:56:56.671Z,2.80
2023-01-18T11:59:25.820Z,2.90
2023-01-18T12:02:01.539Z,2.90
2023-01-18T12:04:40.349Z,2.90
2023-01-18T12:07:33.561Z,2.90
2023-01-18T12:10:08.634Z,2.90
2023-01-18T12:13:02.648Z,2.90
2023-01-18T12:15:49.786Z,2.90
2023-01-18T12:19:10.199Z,2.90
2023-01-18T12:22:04.374Z,2.90
2023-01-18T12:24:31.132Z,2.90
2023-01-18T12:27:02.932Z,3.00
2023-01-18T12:29:58.722Z,3.00
2023-01-18T12:32:55.165Z,3.00
2023-01-18T12:35:51.731Z,3.00
2023-01-18T12:38:28.385Z,3.00
2023-01-18T12:41:32.486Z,3.10
2023-01-18T12:44:17.164Z,3.10
2023-01-18T12:47:07.390Z,3.10
2023-01-18T12:49:45.786Z,3.20
2023-01-18T12:52:18.874Z,3.20
2023-01-18T12:54:50.877Z,3.20
2023-01-18T12:57:19.696Z,3.20
2023-01-18T13:00:33.140Z,3.20
2023-01-18T13:03:00.094Z,3.10
2023-01-18T13:05:52.227Z,3.10
2023-01-18T13:08:54.054Z,3.00
2023-01-18T13:11:35.505Z,3.00
2023-01-18T13:14:17.708Z,3.00
2023-01-18T13:16:55.584Z,3.00
2023-01-18T13:19:29.312Z,3.00
2023-01-18T13:22:26.645Z,2.90
2023-01-18T13:25:31.125Z,2.90
2023-01-18T13:28:14.313Z,2.90
2023-01-18T13:30:56.549Z,2.80
2023-01-18T13:33:27.093Z,2.70
2023-01-18T13:36:02.508Z,2.70
2023-01-18T13:38:41.100Z,2.60
2023-01-18T13:41:12.624Z,2.60
2023-01-18T13:43:46.137Z,2.50
2023-01-18T13:46:18.767Z,2.50
2023-01-18T13:48:50.498Z,2.50
2023-01-18T13:51:42.739Z,2.50
2023-01-18T13:54:29.526Z,2.50
2023-01-18T13:57:05.315Z,2.50
2023-01-18T13:59:45.199Z,2.40
2023-01-18T14:02:34.432Z,2.40
2023-01-18T14:05:26.963Z,2.30
2023-01-18T14:07:58.932Z,2.30
2023-01-18T14:10:38.995Z,2.30
2023-01-18T14:13:13.993Z,2.20
2023-01-18T14:15:43.619Z,2.20
2023-01-18T14:18:30.419Z,2.20
2023-01-18T14:21:23.493Z,2.10
2023-01-18T14:24:09.520Z,2.00
2023-01-18T14:26:39.145Z,2.00
2023-01-18T14:29:11.800Z,2.00
2023-01-18T14:31:47.106Z,1.90
2023-01-18T14:34:29.461Z,1.90
2023-01-18T14:36:57.616Z,1.80
2023-01-18T14:39:24.805Z,1.70
2023-01-18T14:42:04.148Z,1.60
2023-01-18T14:44:57.709Z,1.60
2023-01-18T14:47:30.317Z,1.50
2023-01-18T14:49:57.504Z,1.50
2023-01-18T14:52:28.896Z,1.50
2023-01-18T14:54:56.202Z,1.40
2023-01-18T14:57:24.224Z,1.40
2023-01-18T14:59:53.534Z,1.30
2023-01-18T15:02:24.875Z,1.20
2023-01-18T15:04:52.511Z,1.20
2023-01-18T15:07:30.660Z,1.10
2023-01-18T15:09:58.690Z,1.10
2023-01-18T15:12:31.441Z,1.00
2023-01-18T15:15:15.773Z,1.00
2023-01-18T15:17:43.157Z,1.00
2023-01-18T15:20:14.827Z,0.90
2023-01-18T15:22:42.467Z,0.90
2023-01-18T15:25:24.528Z,0.90
2023-01-18T15:27:52.555Z,0.80
2023-01-18T15:30:22.661Z,0.80
2023-01-18T15:32:57.783Z,0.80
2023-01-18T15:35:25.808Z,0.80
2023-01-18T15:37:52.696Z,0.70
2023-01-18T15:40:19.519Z,0.60
2023-01-18T15:42:51.671Z,0.70
2023-01-18T15:45:24.083Z,0.60
2023-01-18T15:47:54.381Z,0.60
2023-01-18T15:50:36.214Z,0.50
2023-01-18T15:53:06.111Z,0.50
2023-01-18T15:55:45.787Z,0.50
2023-01-18T15:58:15.847Z,0.50
2023-01-18T16:00:46.926Z,0.40
2023-01-18T16:03:31.909Z,0.40
2023-01-18T16:06:15.147Z,0.40
2023-01-18T16:09:16.067Z,0.40
2023-01-18T16:11:47.622Z,0.30
2023-01-18T16:14:32.412Z,0.30
2023-01-18T16:17:02.426Z,0.30
2023-01-18T16:19:31.745Z,0.20
2023-01-18T16:22:01.623Z,0.20
2023-01-18T16:24:36.823Z,0.20
2023-01-18T16:27:12.747Z,0.20
2023-01-18T16:29:52.181Z,0.20
2023-01-18T16:32:24.893Z,0.20
2023-01-18T16:34:55.263Z,0.20
2023-01-18T16:37:22.058Z,0.10
2023-01-18T16:39:49.765Z,0.10
2023-01-18T16:42:18.191Z,0.10
2023-01-18T16:44:47.291Z,0.10
2023-01-18T16:47:16.587Z,0.10
2023-01-18T16:49:44.181Z,0.00
2023-01-18T16:52:12.886Z,0.00
2023-01-18T16:54:44.544Z,0.00
2023-01-18T16:57:23.452Z,0.00
2023-01-18T16:59:50.733Z,0.00
2023-01-18T17:02:17.688Z,0.00
2023-01-18T17:04:46.627Z,0.00
2023-01-18T17:07:14.090Z,-0.10
2023-01-18T17:09:48.543Z,-0.10
2023-01-18T17:12:16.297Z,-0.10
2023-01-18T17:14:43.199Z,-0.10
2023-01-18T17:17:11.102Z,-0.10
2023-01-18T17:19:38.219Z,-0.10
2023-01-18T17:22:06.439Z,-0.20
2023-01-18T17:24:33.457Z,-0.20
2023-01-18T17:27:01.312Z,-0.10
2023-01-18T17:29:28.203Z,-0.20
2023-01-18T17:31:55.209Z,-0.20
2023-01-18T17:34:27.986Z,-0.20
2023-01-18T17:36:58.210Z,-0.30
2023-01-18T17:39:36.852Z,-0.30
2023-01-18T17:42:18.728Z,-0.30
2023-01-18T17:44:49.963Z,-0.30
2023-01-18T17:47:16.850Z,-0.30
2023-01-18T17:49:43.801Z,-0.30
2023-01-18T17:52:10.791Z,-0.30
2023-01-18T17:54:37.581Z,-0.30
2023-01-18T17:57:05.392Z,-0.40
2023-01-18T17:59:32.192Z,-0.40
2023-01-18T18:01:59.093Z,-0.40
2023-01-18T18:04:26.116Z,-0.40
2023-01-18T18:06:58.343Z,-0.40
2023-01-18T18:09:25.639Z,-0.40
2023-01-18T18:11:53.226Z,-0.50
2023-01-18T18:14:20.137Z,-0.40
2023-01-18T18:16:47.273Z,-0.50
2023-01-18T18:19:14.731Z,-0.50
2023-01-18T18:21:45.860Z,-0.50
2023-01-18T18:24:12.825Z,-0.50
2023-01-18T18:26:39.888Z,-0.60
2023-01-18T18:29:06.817Z,-0.60
2023-01-18T18:31:33.954Z,-0.60
2023-01-18T18:34:00.994Z,-0.60
2023-01-18T18:36:28.106Z,-0.60
2023-01-18T18:38:54.905Z,-0.60
2023-01-18T18:41:21.855Z,-0.70
2023-01-18T18:43:48.654Z,-0.70
2023-01-18T18:46:15.587Z,-0.70
2023-01-18T18:48:42.692Z,-0.70
2023-01-18T18:51:09.963Z,-0.70
2023-01-18T18:53:41.113Z,-0.70
2023-01-18T18:56:10.303Z,-0.70
2023-01-18T18:58:38.692Z,-0.70
2023-01-18T19:01:06.685Z,-0.70
2023-01-18T19:03:34.423Z,-0.70
2023-01-18T19:06:01.613Z,-0.70
2023-01-18T19:08:28.486Z,-0.70
2023-01-18T19:10:57.181Z,-0.80
2023-01-18T19:13:24.007Z,-0.80
2023-01-18T19:15:51.408Z,-0.80
2023-01-18T19:18:18.401Z,-0.80
2023-01-18T19:20:45.324Z,-0.80
2023-01-18T19:23:12.312Z,-0.80
2023-01-18T19:25:39.411Z,-0.90
2023-01-18T19:28:06.707Z,-0.90
2023-01-18T19:30:33.664Z,-0.90
2023-01-18T19:33:00.791Z,-0.90
2023-01-18T19:35:28.171Z,-1.00
2023-01-18T19:37:55.441Z,-1.00
2023-01-18T19:40:22.269Z,-1.00
2023-01-18T19:42:55.904Z,-1.00
2023-01-18T19:45:28.147Z,-1.00
2023-01-18T19:47:57.617Z,-1.00
2023-01-18T19:50:25.372Z,-1.00
2023-01-18T19:52:52.855Z,-1.00
2023-01-18T19:55:21.692Z,-1.00
2023-01-18T19:57:49.642Z,-1.00
2023-01-18T20:00:16.888Z,-1.00
2023-01-18T20:02:44.489Z,-1.00
2023-01-18T20:05:11.726Z,-1.00
2023-01-18T20:07:39.361Z,-1.00
2023-01-18T20:10:07.369Z,-1.00
2023-01-18T20:12:34.232Z,-1.00
2023-01-18T20:15:01.247Z,-1.00
2023-01-18T20:17:28.235Z,-1.10
2023-01-18T20:19:55.100Z,-1.10
2023-01-18T20:22:22.891Z,-1.10
2023-01-18T20:24:50.013Z,-1.20
2023-01-18T20:27:17.290Z,-1.20
2023-01-18T20:29:44.921Z,-1.10
2023-01-18T20:32:19.268Z,-1.20
2023-01-18T20:34:47.319Z,-1.20
2023-01-18T20:37:15.429Z,-1.10
2023-01-18T20:39:42.686Z,-1.10
2023-01-18T20:42:09.855Z,-1.10
2023-01-18T20:44:36.739Z,-1.10
2023-01-18T20:47:04.236Z,-1.10
2023-01-18T20:49:38.444Z,-1.10
2023-01-18T20:52:07.088Z,-1.10
2023-01-18T20:54:36.179Z,-1.10
2023-01-18T20:57:04.540Z,-1.00
2023-01-18T20:59:31.465Z,-1.10
2023-01-18T21:01:58.518Z,-1.10
2023-01-18T21:04:25.833Z,-1.10
2023-01-18T21:06:52.691Z,-1.00
2023-01-18T21:09:19.642Z,-1.00
2023-01-18T21:11:46.411Z,-1.00
2023-01-18T21:14:13.283Z,-1.00
2023-01-18T21:16:40.391Z,-0.90
2023-01-18T21:19:07.596Z,-0.90
2023-01-18T21:21:34.387Z,-0.80
2023-01-18T21:24:01.591Z,-0.80
2023-01-18T21:26:32.189Z,-0.80
2023-01-18T21:28:59.324Z,-0.70
2023-01-18T21:31:28.467Z,-0.70
2023-01-18T21:33:55.451Z,-0.60
2023-01-18T21:36:23.049Z,-0.60
2023-01-18T21:38:50.752Z,-0.60
2023-01-18T21:41:36.791Z,-0.50
2023-01-18T21:44:22.360Z,-0.50
2023-01-18T21:46:51.669Z,-0.50
2023-01-18T21:50:19.449Z,-0.50
2023-01-18T21:52:43.260Z,-0.40
2023-01-18T21:55:10.587Z,-0.40
2023-01-18T21:57:38.722Z,-0.40
2023-01-18T22:00:06.374Z,-0.40
2023-01-18T22:02:36.855Z,-0.40
2023-01-18T22:05:04.386Z,-0.30
2023-01-18T22:07:33.911Z,-0.40
2023-01-18T22:10:06.046Z,-0.40
2023-01-18T22:12:35.521Z,-0.40
2023-01-18T22:15:04.464Z,-0.40
2023-01-18T22:17:31.541Z,-0.40
2023-01-18T22:19:58.384Z,-0.40
2023-01-18T22:22:25.223Z,-0.40
2023-01-18T22:24:52.312Z,-0.40
2023-01-18T22:27:19.279Z,-0.40
2023-01-18T22:29:46.075Z,-0.40
2023-01-18T22:32:13.018Z,-0.40
2023-01-18T22:34:39.956Z,-0.30
2023-01-18T22:37:06.746Z,-0.30
2023-01-18T22:39:33.654Z,-0.30
2023-01-18T22:42:00.688Z,-0.20
2023-01-18T22:44:27.528Z,-0.20
2023-01-18T22:46:54.358Z,-0.20
2023-01-18T22:49:21.804Z,-0.20
2023-01-18T22:51:48.651Z,-0.10
2023-01-18T22:54:15.956Z,-0.10
2023-01-18T22:56:42.845Z,-0.10
2023-01-18T22:59:09.634Z,-0.10
2023-01-18T23:01:36.425Z,-0.10
2023-01-18T23:04:04.244Z,-0.10
2023-01-18T23:06:42.197Z,-0.10
2023-01-18T23:09:10.049Z,0.00
2023-01-18T23:11:37.197Z,-0.10
2023-01-18T23:14:22.993Z,0.00
2023-01-18T23:17:08.089Z,0.00
2023-01-18T23:19:35.462Z,0.00
2023-01-18T23:22:07.400Z,0.00
2023-01-18T23:24:36.369Z,0.10
2023-01-18T23:27:05.213Z,0.10
2023-01-18T23:29:32.256Z,0.10
2023-01-18T23:31:59.412Z,0.10
2023-01-18T23:34:26.513Z,0.20
2023-01-18T23:36:53.746Z,0.30
2023-01-18T23:39:39.403Z,0.30
2023-01-18T23:42:24.984Z,0.30
2023-01-18T23:45:10.377Z,0.40
2023-01-18T23:47:56.452Z,0.40
2023-01-18T23:50:41.995Z,0.50
2023-01-18T23:53:32.121Z,0.60
2023-01-18T23:55:59.748Z,0.80
2023-01-18T23:58:27.663Z,0.90
